a
b
c
d

Рынок наличной валюты

USD/RUB Москва
В данном разделе сайта представлен курс обмена доллара в Москве на текущий день. Статистические данные взяты из открытых источников. Для того, чтобы удостовериться в актуальности представленных сведений обмена USD/RUB в Москве на конкретный момент времени, свяжитесь с представителями банка по указанному в карточке телефону. Для просмотра номера телефона и других сведений о банке достаточно кликнуть на его название в общей таблице. Рынок наличной валюты достаточно подвижен, поэтому данные о курсе обмена доллара и рубля постоянно обновляются. В разделе "Рынок наличной валюты" Вы сможете изучить курс покупки-продажи для разных банков и выбрать наиболее выгодный вариант обмена валюты.


Показать полностью

Обмен Долларов США и Российских рублей в Москве


Название банка Покупка Продажа Сумма Комм. Время
ОАО КБ "ЮНИСТРИМ" оквку № 277 67,6 68,6 1000 Нет 06.09.2015
ОАО КБ "ЮНИСТРИМ" оквку № 247 м. Бирюзова д. 19 67,6 68,6 10000 Нет 07.09.2015
КБ "Нацинвестпромбанк" (АО) ДО "Савеловский" 67,6 69,6 1 Нет 07.09.2015
ОАО МАБ "Темпбанк" ул. Крутицкий вал 67,6 69,1 1 Нет 07.09.2015
АКБ "НОВЫЙ КРЕДИТНЫЙ СОЮЗ" (ЗАО) оквку № 32 (ОДИНЦОВО АВТОТРЕК) 67,6 68,45 1000 Нет 07.09.2015
ООО "ЮРБ" оквку № 12 67,6 68,5 20000 Нет 07.09.2015
АО "СМАРТБАНК" ДО "Войковский" 67,6 68,4 10000 Нет 07.09.2015
АО "РФИ БАНК" оквку № 1 67,58 68,79 10000 Нет 07.09.2015
ПАО АГРОИНКОМБАНК оквку "Б. Тульская, д. 2" 67,57 0 1000 Нет 06.09.2015
АО "Нефтепромбанк" Московский филиал Донской 67,56 68,3 10000 Нет 07.09.2015
ООО КБ "Международный расчетный банк" оквку "Оружейный переулок, д. 23" 67,55 68,5 1 Нет 05.09.2015
ООО КБ "Стар-Альянс" оквку № 10 67,55 68,95 10000 Нет 07.09.2015
АО "НС Банк" ДО "На Семеновской" 67,53 68,57 20000 Нет 07.09.2015
АО "НС Банк" ДО "Тверской бульвар" 67,53 68,57 20000 Нет 07.09.2015
АО "НС Банк" ДО "Цветной бульвар" 67,53 68,57 20000 Нет 07.09.2015
АО "НС Банк" ДО "На Кропоткинской" 67,53 68,57 20000 Нет 07.09.2015
АО "РФИ БАНК" оквку № 1 67,53 68,84 100 Нет 07.09.2015
АО "НС Банк" ДО "Юго-Западный" 67,53 68,57 20000 Нет 07.09.2015
АО "НС Банк" ДО "На Кропоткинской" 67,52 68,58 10000 Нет 07.09.2015
ЗАО "Гринфилдбанк" Малый Головин переулок 67,52 68,98 20000 Нет 07.09.2015
ЗАО "Гринфилдбанк" ДО " На Коминтерна" 67,52 68,98 2000 Нет 07.09.2015
ЗАО "Гринфилдбанк" ДО "На Михайлова" 67,52 68,98 2000 Нет 07.09.2015
ЗАО "Гринфилдбанк" ДО "На Энергетической" 67,52 68,98 2000 Нет 07.09.2015
ЗАО "Гринфилдбанк" ДО " На Коминтерна" 67,52 68,98 20000 Нет 07.09.2015
АО "НС Банк" ДО "На Семеновской" 67,52 68,58 10000 Нет 07.09.2015
ЗАО "Гринфилдбанк" Малый Головин переулок 67,52 68,98 2000 Нет 07.09.2015
АО "НС Банк" ДО "Юго-Западный" 67,52 68,58 10000 Нет 07.09.2015
ЗАО "Гринфилдбанк" ДО "На Энергетической" 67,52 68,98 20000 Нет 07.09.2015
ЗАО "Гринфилдбанк" ДО "На Михайлова" 67,52 68,98 20000 Нет 07.09.2015
АО "НС Банк" ДО "Цветной бульвар" 67,52 68,58 10000 Нет 07.09.2015
АО "НС Банк" ДО "Тверской бульвар" 67,52 68,58 10000 Нет 07.09.2015
АО "НС Банк" ул. Добровольческая 67,51 68,59 20000 Нет 07.09.2015
АО "НС Банк" ДО "Павшино" 67,51 68,59 20000 Нет 07.09.2015
ООО "ЮРБ" оквку № 5 67,5099 68,9989 1000 Нет 07.09.2015
ООО КБ "Ренессанс" оквку "Б. ДЕКАБРЬСКАЯ-3" 67,5099 68,3943 50000 Нет 05.09.2015
ООО "ЮРБ" оквку № 5 67,5099 68,9989 10000 Нет 07.09.2015
АКБ "НОВЫЙ КРЕДИТНЫЙ СОЮЗ" (ЗАО) оквку № 29 (ПРОСПЕКТ МИРА 61) 67,506 68,496 20000 Нет 05.09.2015
КБ "ИНФОРМПРОГРЕСС" (ООО) оквку № 44 67,5051 68,4951 1000 Нет 07.09.2015
АКИБ "ОБРАЗОВАНИЕ" (ЗАО) оквку № 38 "Химки" 67,505 68,495 10000 Нет 07.09.2015
АКИБ "ОБРАЗОВАНИЕ" (ЗАО) оквку № 38 "Химки" 67,505 68,495 50000 Нет 07.09.2015
АКИБ "ОБРАЗОВАНИЕ" (ЗАО) оквку № 38 "Химки" 67,505 68,495 100000 Нет 07.09.2015
ООО КБ "Стар-Альянс" оквку № 16 67,5049 68,2955 50001 Нет 07.09.2015
ООО КБ "Стар-Альянс" оквку № 16 67,5049 68,3455 5001 Нет 07.09.2015
ООО КБ "ФПК" оквку № 21 "Рижская" 67,501 68,999 1000 Нет 07.09.2015
ООО ИКБ "ЛОГОС" оквку "НА СВОБОДНОМ 33А" 67,5 68,35 10000 Нет 06.09.2015
ООО ИКБ "ЛОГОС" оквку "НА СВОБОДНОМ 33А" 67,5 68,35 50000 Нет 06.09.2015
ООО ИКБ "ЛОГОС" оквку "Новослободская 10" 67,5 0 1000 Нет 05.09.2015
НКО "Континент Финанс" (ПАО) оквку № 10 "На Университетском д. 4" 67,5 68,15 5000 Нет 06.09.2015
КБ "ИНФОРМПРОГРЕСС" (ООО) оквку Комсомольский проспект 67,5 68,15 100000 Нет 04.09.2015
АО "НС Банк" ДО "На Семеновской" 67,5 68,6 1 Нет 07.09.2015

Погода сейчас

+8°C
Переменная облачность, влажность 72%
Москва

EUR/RUB
Покупка

75,54

от 1.0 EUR

ОКВКУ № 0234 "БЛАГОДАТНЫЙ
Продажа

76

от 1.0 EUR

ОКВКУ № 0234 "БЛАГОДАТНЫЙ
USD/RUB
Покупка

65,54

от 1.0 USD

ОКВКУ 0232 "СКОБЕЛЕВСКИЙ
Продажа

65,88

от 1000.0 USD

ОКВКУ "Владимирский